BOX523 EBBR-EDDP
Flight info
| Callsign | BOX523 |
|---|---|
| Flight time | 0h 57m |
| Altitude | 39000 |
| Route | SOPOK Y863 OGLOR DCT AMASI DCT MASEK DCT FEDZA T957 KOJEC KOJEC1R |
| Aircraft | B77L/H-SDE1E2E3FGHIJ2J3J4J5M1RWXY/LB1D1 |
Departure
| Time | 2026-05-05 13:05 |
|---|---|
| Airport | Brussels Airport (EBBR) |
Arrival
| Time | 2026-05-05 14:02 |
|---|---|
| Airport | Leipzig/Halle Airport (EDDP) |
| Time | Latitude | Longitude | Altitude | Speed | Heading |
|---|---|---|---|---|---|
| 2026-05-05 12:28 | 50.90324 | 4.45910 | 141 ft | 0 kts | 335° |
| 2026-05-05 12:48 | 50.90312 | 4.45919 | 141 ft | 4 kts | 336° |
| 2026-05-05 12:48 | 50.90288 | 4.45934 | 141 ft | 4 kts | 341° |
| 2026-05-05 12:48 | 50.90262 | 4.45946 | 141 ft | 4 kts | 353° |
| 2026-05-05 12:48 | 50.90239 | 4.45945 | 142 ft | 4 kts | 24° |
| 2026-05-05 12:49 | 50.90226 | 4.45932 | 142 ft | 1 kts | 65° |
| 2026-05-05 12:49 | 50.90226 | 4.45931 | 142 ft | 0 kts | 65° |
| 2026-05-05 12:53 | 50.90226 | 4.45932 | 142 ft | 1 kts | 65° |
| 2026-05-05 12:53 | 50.90240 | 4.45978 | 141 ft | 9 kts | 65° |
| 2026-05-05 12:53 | 50.90280 | 4.46117 | 140 ft | 18 kts | 65° |
| 2026-05-05 12:53 | 50.90342 | 4.46331 | 137 ft | 19 kts | 65° |
| 2026-05-05 12:54 | 50.90301 | 4.46696 | 131 ft | 18 kts | 116° |
| 2026-05-05 12:54 | 50.90247 | 4.46871 | 126 ft | 18 kts | 116° |
| 2026-05-05 12:54 | 50.90192 | 4.47045 | 126 ft | 18 kts | 116° |
| 2026-05-05 12:55 | 50.90182 | 4.47205 | 125 ft | 15 kts | 63° |
| 2026-05-05 12:55 | 50.90228 | 4.47356 | 123 ft | 16 kts | 65° |
| 2026-05-05 12:55 | 50.90276 | 4.47525 | 121 ft | 18 kts | 65° |
| 2026-05-05 12:55 | 50.90327 | 4.47701 | 121 ft | 18 kts | 65° |
| 2026-05-05 12:56 | 50.90378 | 4.47876 | 123 ft | 18 kts | 65° |
| 2026-05-05 12:56 | 50.90429 | 4.48053 | 120 ft | 18 kts | 65° |
| 2026-05-05 12:56 | 50.90480 | 4.48228 | 123 ft | 18 kts | 65° |
| 2026-05-05 12:56 | 50.90531 | 4.48405 | 122 ft | 18 kts | 65° |
| 2026-05-05 12:57 | 50.90581 | 4.48580 | 123 ft | 18 kts | 65° |
| 2026-05-05 12:57 | 50.90633 | 4.48759 | 120 ft | 19 kts | 65° |
| 2026-05-05 12:57 | 50.90692 | 4.48962 | 121 ft | 20 kts | 65° |
| 2026-05-05 12:57 | 50.90750 | 4.49167 | 123 ft | 20 kts | 65° |
| 2026-05-05 12:58 | 50.90809 | 4.49372 | 125 ft | 20 kts | 65° |
| 2026-05-05 12:58 | 50.90863 | 4.49557 | 124 ft | 12 kts | 68° |
| 2026-05-05 12:58 | 50.90835 | 4.49671 | 123 ft | 12 kts | 133° |
| 2026-05-05 12:58 | 50.90761 | 4.49712 | 126 ft | 12 kts | 187° |
| 2026-05-05 12:59 | 50.90680 | 4.49684 | 125 ft | 12 kts | 194° |
| 2026-05-05 12:59 | 50.90600 | 4.49651 | 125 ft | 12 kts | 194° |
| 2026-05-05 12:59 | 50.90513 | 4.49615 | 124 ft | 16 kts | 194° |
| 2026-05-05 13:00 | 50.90234 | 4.49502 | 124 ft | 19 kts | 194° |
| 2026-05-05 13:00 | 50.90107 | 4.49450 | 133 ft | 19 kts | 194° |
| 2026-05-05 13:01 | 50.89733 | 4.49299 | 151 ft | 19 kts | 194° |
| 2026-05-05 13:01 | 50.89625 | 4.49248 | 158 ft | 13 kts | 207° |
| 2026-05-05 13:01 | 50.89543 | 4.49180 | 162 ft | 13 kts | 197° |
| 2026-05-05 13:01 | 50.89452 | 4.49142 | 166 ft | 14 kts | 194° |
| 2026-05-05 13:02 | 50.89338 | 4.49096 | 171 ft | 20 kts | 194° |
| 2026-05-05 13:02 | 50.89253 | 4.49062 | 175 ft | 8 kts | 194° |
| 2026-05-05 13:02 | 50.89199 | 4.49041 | 179 ft | 8 kts | 194° |
| 2026-05-05 13:02 | 50.89126 | 4.49010 | 181 ft | 16 kts | 195° |
| 2026-05-05 13:03 | 50.88985 | 4.48951 | 196 ft | 24 kts | 194° |
| 2026-05-05 13:03 | 50.88844 | 4.48894 | 203 ft | 17 kts | 194° |
| 2026-05-05 13:03 | 50.88753 | 4.48928 | 200 ft | 15 kts | 119° |
| 2026-05-05 13:03 | 50.88726 | 4.49063 | 201 ft | 10 kts | 104° |
| 2026-05-05 13:04 | 50.88744 | 4.49157 | 202 ft | 10 kts | 32° |
| 2026-05-05 13:04 | 50.88833 | 4.49199 | 197 ft | 30 kts | 15° |
| 2026-05-05 13:04 | 50.89099 | 4.49305 | 182 ft | 89 kts | 14° |
| 2026-05-05 13:04 | 50.89975 | 4.49669 | 140 ft | 168 kts | 14° |
| 2026-05-05 13:05 | 50.91230 | 4.50168 | 494 ft | 195 kts | 14° |
| 2026-05-05 13:05 | 50.92563 | 4.50727 | 1325 ft | 198 kts | 22° |
| 2026-05-05 13:05 | 50.94021 | 4.52342 | 2461 ft | 198 kts | 60° |
| 2026-05-05 13:05 | 50.94261 | 4.54598 | 2811 ft | 228 kts | 101° |
| 2026-05-05 13:06 | 50.93382 | 4.56759 | 3430 ft | 246 kts | 141° |
| 2026-05-05 13:06 | 50.92379 | 4.57700 | 3920 ft | 250 kts | 148° |
| 2026-05-05 13:06 | 50.90956 | 4.59356 | 4638 ft | 259 kts | 137° |
| 2026-05-05 13:06 | 50.89613 | 4.61278 | 5509 ft | 261 kts | 140° |
| 2026-05-05 13:07 | 50.87952 | 4.62490 | 6226 ft | 270 kts | 171° |
| 2026-05-05 13:07 | 50.86052 | 4.62742 | 6952 ft | 278 kts | 174° |
| 2026-05-05 13:07 | 50.84144 | 4.62959 | 7855 ft | 279 kts | 174° |
| 2026-05-05 13:07 | 50.82195 | 4.63195 | 8749 ft | 283 kts | 174° |
| 2026-05-05 13:08 | 50.80214 | 4.63449 | 9603 ft | 288 kts | 173° |
| 2026-05-05 13:08 | 50.78196 | 4.63720 | 10375 ft | 294 kts | 173° |
| 2026-05-05 13:08 | 50.76082 | 4.64011 | 10702 ft | 318 kts | 173° |
| 2026-05-05 13:08 | 50.73812 | 4.64469 | 10872 ft | 339 kts | 162° |
| 2026-05-05 13:09 | 50.71676 | 4.66231 | 11081 ft | 359 kts | 136° |
| 2026-05-05 13:09 | 50.70233 | 4.69452 | 11810 ft | 363 kts | 111° |
| 2026-05-05 13:09 | 50.69431 | 4.73219 | 12576 ft | 366 kts | 106° |
| 2026-05-05 13:09 | 50.68694 | 4.77078 | 13554 ft | 368 kts | 106° |
| 2026-05-05 13:10 | 50.67966 | 4.80964 | 14429 ft | 372 kts | 106° |
| 2026-05-05 13:10 | 50.67221 | 4.84901 | 15229 ft | 377 kts | 107° |
| 2026-05-05 13:10 | 50.66462 | 4.88868 | 16086 ft | 379 kts | 107° |
| 2026-05-05 13:10 | 50.65687 | 4.92859 | 16872 ft | 384 kts | 108° |
| 2026-05-05 13:11 | 50.64890 | 4.96923 | 17545 ft | 391 kts | 108° |
| 2026-05-05 13:11 | 50.64076 | 5.01040 | 18224 ft | 397 kts | 108° |
| 2026-05-05 13:11 | 50.63244 | 5.05238 | 18760 ft | 405 kts | 108° |
| 2026-05-05 13:11 | 50.62395 | 5.09507 | 19292 ft | 413 kts | 109° |
| 2026-05-05 13:12 | 50.61529 | 5.13859 | 19847 ft | 419 kts | 109° |
| 2026-05-05 13:12 | 50.60652 | 5.18256 | 20436 ft | 424 kts | 109° |
| 2026-05-05 13:12 | 50.59761 | 5.22710 | 21089 ft | 428 kts | 109° |
| 2026-05-05 13:12 | 50.58829 | 5.27154 | 21688 ft | 427 kts | 114° |
| 2026-05-05 13:13 | 50.57281 | 5.31137 | 22114 ft | 431 kts | 134° |
| 2026-05-05 13:13 | 50.55079 | 5.34308 | 22674 ft | 430 kts | 140° |
| 2026-05-05 13:13 | 50.52834 | 5.37455 | 23242 ft | 435 kts | 139° |
| 2026-05-05 13:13 | 50.50617 | 5.40643 | 23817 ft | 437 kts | 139° |
| 2026-05-05 13:14 | 50.48363 | 5.43923 | 24411 ft | 439 kts | 139° |
| 2026-05-05 13:14 | 50.46119 | 5.47201 | 24961 ft | 441 kts | 139° |
| 2026-05-05 13:14 | 50.43893 | 5.50453 | 25458 ft | 445 kts | 139° |
| 2026-05-05 13:14 | 50.41590 | 5.53809 | 25968 ft | 448 kts | 139° |
| 2026-05-05 13:15 | 50.39303 | 5.57137 | 26460 ft | 451 kts | 139° |
| 2026-05-05 13:15 | 50.36992 | 5.60492 | 26961 ft | 454 kts | 139° |
| 2026-05-05 13:15 | 50.34664 | 5.63869 | 27438 ft | 458 kts | 139° |
| 2026-05-05 13:15 | 50.32324 | 5.67257 | 27919 ft | 461 kts | 139° |
| 2026-05-05 13:16 | 50.29962 | 5.70672 | 28352 ft | 464 kts | 139° |
| 2026-05-05 13:16 | 50.27589 | 5.74108 | 28782 ft | 464 kts | 138° |
| 2026-05-05 13:16 | 50.25512 | 5.78023 | 29053 ft | 475 kts | 124° |
| 2026-05-05 13:16 | 50.24179 | 5.82767 | 29365 ft | 483 kts | 108° |
| 2026-05-05 13:17 | 50.23411 | 5.87872 | 29701 ft | 486 kts | 106° |
| 2026-05-05 13:17 | 50.22629 | 5.93011 | 30137 ft | 486 kts | 107° |
| 2026-05-05 13:17 | 50.21804 | 5.98110 | 30656 ft | 482 kts | 108° |
| 2026-05-05 13:17 | 50.20974 | 6.03041 | 31210 ft | 479 kts | 109° |
| 2026-05-05 13:18 | 50.20098 | 6.08158 | 31733 ft | 476 kts | 109° |
| 2026-05-05 13:18 | 50.19276 | 6.13167 | 32221 ft | 476 kts | 106° |
| 2026-05-05 13:18 | 50.18767 | 6.18294 | 32666 ft | 480 kts | 100° |
| 2026-05-05 13:18 | 50.18573 | 6.23499 | 33106 ft | 482 kts | 96° |
| 2026-05-05 13:19 | 50.18690 | 6.28734 | 33511 ft | 486 kts | 90° |
| 2026-05-05 13:19 | 50.19027 | 6.33981 | 33915 ft | 485 kts | 89° |
| 2026-05-05 13:19 | 50.19398 | 6.39219 | 34229 ft | 485 kts | 89° |
| 2026-05-05 13:19 | 50.19763 | 6.44453 | 34515 ft | 486 kts | 89° |
| 2026-05-05 13:20 | 50.20103 | 6.49621 | 34741 ft | 487 kts | 89° |
| 2026-05-05 13:20 | 50.20433 | 6.54909 | 34773 ft | 491 kts | 89° |
| 2026-05-05 13:20 | 50.21077 | 6.65590 | 34811 ft | 489 kts | 90° |
| 2026-05-05 13:21 | 50.21494 | 6.76098 | 34810 ft | 483 kts | 92° |
| 2026-05-05 13:21 | 50.21789 | 6.86442 | 34813 ft | 477 kts | 92° |
| 2026-05-05 13:22 | 50.22102 | 6.96892 | 34843 ft | 483 kts | 92° |
| 2026-05-05 13:22 | 50.22433 | 7.07374 | 34832 ft | 488 kts | 92° |
| 2026-05-05 13:23 | 50.22768 | 7.17962 | 34827 ft | 488 kts | 92° |
| 2026-05-05 13:23 | 50.23090 | 7.28541 | 34829 ft | 488 kts | 92° |
| 2026-05-05 13:24 | 50.23400 | 7.39110 | 34827 ft | 487 kts | 92° |
| 2026-05-05 13:24 | 50.23702 | 7.49678 | 34820 ft | 487 kts | 92° |
| 2026-05-05 13:25 | 50.24432 | 7.60225 | 34821 ft | 493 kts | 83° |
| 2026-05-05 13:25 | 50.26404 | 7.70538 | 34823 ft | 499 kts | 73° |
| 2026-05-05 13:26 | 50.29015 | 7.80631 | 34821 ft | 500 kts | 72° |
| 2026-05-05 13:26 | 50.31646 | 7.90718 | 34816 ft | 501 kts | 72° |
| 2026-05-05 13:27 | 50.34233 | 8.00850 | 34818 ft | 502 kts | 72° |
| 2026-05-05 13:27 | 50.36794 | 8.11026 | 34820 ft | 503 kts | 72° |
| 2026-05-05 13:28 | 50.39329 | 8.21162 | 34822 ft | 503 kts | 72° |
| 2026-05-05 13:28 | 50.41880 | 8.31403 | 34833 ft | 505 kts | 72° |
| 2026-05-05 13:29 | 50.44430 | 8.41678 | 34815 ft | 506 kts | 72° |
| 2026-05-05 13:29 | 50.46974 | 8.51978 | 34811 ft | 506 kts | 72° |
| 2026-05-05 13:30 | 50.49511 | 8.62296 | 34814 ft | 507 kts | 72° |
| 2026-05-05 13:30 | 50.52046 | 8.72653 | 34815 ft | 508 kts | 72° |
| 2026-05-05 13:31 | 50.54574 | 8.83036 | 34813 ft | 509 kts | 72° |
| 2026-05-05 13:31 | 50.57096 | 8.93440 | 34814 ft | 510 kts | 72° |
| 2026-05-05 13:32 | 50.59609 | 9.03855 | 34811 ft | 510 kts | 72° |
| 2026-05-05 13:32 | 50.62080 | 9.14147 | 34818 ft | 511 kts | 72° |
| 2026-05-05 13:33 | 50.64567 | 9.24557 | 34814 ft | 511 kts | 72° |
| 2026-05-05 13:33 | 50.67060 | 9.35035 | 34822 ft | 511 kts | 72° |
| 2026-05-05 13:34 | 50.69546 | 9.45539 | 34813 ft | 511 kts | 72° |
| 2026-05-05 13:34 | 50.72088 | 9.56007 | 34815 ft | 512 kts | 68° |
| 2026-05-05 13:35 | 50.75439 | 9.65653 | 34818 ft | 515 kts | 57° |
| 2026-05-05 13:35 | 50.79685 | 9.74918 | 34820 ft | 516 kts | 55° |
| 2026-05-05 13:36 | 50.83935 | 9.84061 | 34824 ft | 516 kts | 55° |
| 2026-05-05 13:36 | 50.88134 | 9.93268 | 34823 ft | 516 kts | 56° |
| 2026-05-05 13:37 | 50.92310 | 10.02530 | 34826 ft | 517 kts | 56° |
| 2026-05-05 13:37 | 50.96482 | 10.11814 | 34829 ft | 517 kts | 56° |
| 2026-05-05 13:38 | 51.00653 | 10.21118 | 34825 ft | 517 kts | 56° |
| 2026-05-05 13:38 | 51.04964 | 10.30243 | 34816 ft | 517 kts | 46° |
| 2026-05-05 13:39 | 51.10644 | 10.37174 | 34841 ft | 515 kts | 27° |
| 2026-05-05 13:39 | 51.13901 | 10.39495 | 34739 ft | 514 kts | 18° |
| 2026-05-05 13:39 | 51.17335 | 10.41395 | 33582 ft | 529 kts | 16° |
| 2026-05-05 13:40 | 51.20815 | 10.43305 | 32680 ft | 529 kts | 17° |
| 2026-05-05 13:40 | 51.24138 | 10.45773 | 31743 ft | 530 kts | 32° |
| 2026-05-05 13:40 | 51.26934 | 10.49577 | 30888 ft | 530 kts | 49° |
| 2026-05-05 13:40 | 51.29068 | 10.54335 | 30299 ft | 523 kts | 63° |
| 2026-05-05 13:41 | 51.30457 | 10.59607 | 29715 ft | 510 kts | 72° |
| 2026-05-05 13:41 | 51.31620 | 10.64928 | 29103 ft | 505 kts | 72° |
| 2026-05-05 13:41 | 51.32792 | 10.70185 | 28554 ft | 498 kts | 72° |
| 2026-05-05 13:41 | 51.33972 | 10.75364 | 28004 ft | 492 kts | 71° |
| 2026-05-05 13:42 | 51.35155 | 10.80474 | 27459 ft | 487 kts | 71° |
| 2026-05-05 13:42 | 51.36333 | 10.85513 | 26919 ft | 482 kts | 71° |
| 2026-05-05 13:42 | 51.37505 | 10.90515 | 26387 ft | 477 kts | 71° |
| 2026-05-05 13:42 | 51.38661 | 10.95457 | 25889 ft | 472 kts | 71° |
| 2026-05-05 13:43 | 51.39804 | 11.00356 | 25364 ft | 468 kts | 71° |
| 2026-05-05 13:43 | 51.40933 | 11.05214 | 24867 ft | 464 kts | 71° |
| 2026-05-05 13:43 | 51.42050 | 11.10034 | 24361 ft | 460 kts | 71° |
| 2026-05-05 13:43 | 51.43157 | 11.14824 | 23861 ft | 456 kts | 71° |
| 2026-05-05 13:44 | 51.44256 | 11.19588 | 23329 ft | 453 kts | 71° |
| 2026-05-05 13:44 | 51.45326 | 11.24243 | 22768 ft | 450 kts | 71° |
| 2026-05-05 13:44 | 51.46416 | 11.28988 | 22243 ft | 446 kts | 71° |
| 2026-05-05 13:44 | 51.47481 | 11.33639 | 21739 ft | 441 kts | 71° |
| 2026-05-05 13:45 | 51.48531 | 11.38234 | 21255 ft | 437 kts | 71° |
| 2026-05-05 13:45 | 51.49573 | 11.42794 | 20781 ft | 434 kts | 71° |
| 2026-05-05 13:45 | 51.50592 | 11.47271 | 20309 ft | 430 kts | 71° |
| 2026-05-05 13:45 | 51.51502 | 11.51883 | 19819 ft | 424 kts | 81° |
| 2026-05-05 13:46 | 51.51771 | 11.56490 | 19364 ft | 418 kts | 90° |
| 2026-05-05 13:46 | 51.51876 | 11.61135 | 18920 ft | 416 kts | 89° |
| 2026-05-05 13:46 | 51.52058 | 11.65757 | 18470 ft | 415 kts | 87° |
| 2026-05-05 13:46 | 51.52291 | 11.70371 | 17929 ft | 415 kts | 86° |
| 2026-05-05 13:47 | 51.52537 | 11.74976 | 17404 ft | 412 kts | 86° |
| 2026-05-05 13:47 | 51.52721 | 11.78492 | 17024 ft | 409 kts | 86° |
| 2026-05-05 13:47 | 51.52952 | 11.83021 | 16558 ft | 405 kts | 87° |
| 2026-05-05 13:47 | 51.53176 | 11.87515 | 16100 ft | 402 kts | 87° |
| 2026-05-05 13:48 | 51.53396 | 11.91962 | 15647 ft | 398 kts | 87° |
| 2026-05-05 13:48 | 51.53612 | 11.96373 | 15188 ft | 395 kts | 87° |
| 2026-05-05 13:48 | 51.53825 | 12.00754 | 14726 ft | 392 kts | 87° |
| 2026-05-05 13:48 | 51.54034 | 12.05108 | 14278 ft | 389 kts | 86° |
| 2026-05-05 13:49 | 51.54242 | 12.09450 | 13816 ft | 391 kts | 86° |
| 2026-05-05 13:49 | 51.54451 | 12.13821 | 13407 ft | 392 kts | 86° |
| 2026-05-05 13:49 | 51.54657 | 12.18165 | 13107 ft | 389 kts | 87° |
| 2026-05-05 13:49 | 51.54859 | 12.22485 | 12789 ft | 386 kts | 87° |
| 2026-05-05 13:50 | 51.55059 | 12.26774 | 12347 ft | 383 kts | 87° |
| 2026-05-05 13:50 | 51.55255 | 12.31019 | 11896 ft | 379 kts | 87° |
| 2026-05-05 13:50 | 51.55447 | 12.35223 | 11441 ft | 375 kts | 87° |
| 2026-05-05 13:50 | 51.55635 | 12.39377 | 10997 ft | 371 kts | 87° |
| 2026-05-05 13:51 | 51.55819 | 12.43465 | 10766 ft | 361 kts | 87° |
| 2026-05-05 13:51 | 51.55995 | 12.47392 | 10587 ft | 339 kts | 87° |
| 2026-05-05 13:51 | 51.56157 | 12.51013 | 10429 ft | 310 kts | 87° |
| 2026-05-05 13:51 | 51.56305 | 12.54352 | 10331 ft | 293 kts | 87° |
| 2026-05-05 13:52 | 51.56445 | 12.57553 | 10206 ft | 281 kts | 88° |
| 2026-05-05 13:52 | 51.56578 | 12.60626 | 10095 ft | 271 kts | 88° |
| 2026-05-05 13:52 | 51.56705 | 12.63600 | 9972 ft | 264 kts | 88° |
| 2026-05-05 13:52 | 51.56831 | 12.66532 | 9881 ft | 263 kts | 88° |
| 2026-05-05 13:53 | 51.56914 | 12.68496 | 9819 ft | 269 kts | 88° |
| 2026-05-05 13:53 | 51.57045 | 12.71615 | 9497 ft | 288 kts | 88° |
| 2026-05-05 13:53 | 51.57181 | 12.74838 | 9145 ft | 288 kts | 87° |
| 2026-05-05 13:53 | 51.57315 | 12.78030 | 8807 ft | 284 kts | 88° |
| 2026-05-05 13:54 | 51.57119 | 12.81096 | 8484 ft | 272 kts | 114° |
| 2026-05-05 13:54 | 51.56067 | 12.83554 | 8217 ft | 269 kts | 142° |
| 2026-05-05 13:54 | 51.54451 | 12.85027 | 7932 ft | 270 kts | 166° |
| 2026-05-05 13:54 | 51.52605 | 12.85409 | 7760 ft | 263 kts | 185° |
| 2026-05-05 13:55 | 51.50827 | 12.84779 | 7427 ft | 265 kts | 203° |
| 2026-05-05 13:55 | 51.49530 | 12.83876 | 7201 ft | 267 kts | 205° |
| 2026-05-05 13:55 | 51.47827 | 12.82619 | 6892 ft | 269 kts | 205° |
| 2026-05-05 13:55 | 51.46136 | 12.81396 | 6546 ft | 265 kts | 205° |
| 2026-05-05 13:56 | 51.44657 | 12.79791 | 6208 ft | 255 kts | 231° |
| 2026-05-05 13:56 | 51.43896 | 12.77289 | 5927 ft | 250 kts | 258° |
| 2026-05-05 13:56 | 51.43670 | 12.74527 | 5642 ft | 252 kts | 264° |
| 2026-05-05 13:56 | 51.43528 | 12.71694 | 5337 ft | 258 kts | 265° |
| 2026-05-05 13:57 | 51.43398 | 12.68805 | 5076 ft | 260 kts | 266° |
| 2026-05-05 13:57 | 51.43271 | 12.65960 | 5033 ft | 253 kts | 266° |
| 2026-05-05 13:57 | 51.43142 | 12.63166 | 5007 ft | 252 kts | 265° |
| 2026-05-05 13:57 | 51.43011 | 12.60296 | 4702 ft | 264 kts | 266° |
| 2026-05-05 13:58 | 51.42874 | 12.57346 | 4357 ft | 266 kts | 266° |
| 2026-05-05 13:58 | 51.42737 | 12.54415 | 4008 ft | 263 kts | 266° |
| 2026-05-05 13:58 | 51.42603 | 12.51510 | 3654 ft | 259 kts | 266° |
| 2026-05-05 13:58 | 51.42472 | 12.48700 | 3330 ft | 244 kts | 266° |
| 2026-05-05 13:59 | 51.42236 | 12.43640 | 2712 ft | 213 kts | 267° |
| 2026-05-05 13:59 | 51.42131 | 12.41369 | 2462 ft | 195 kts | 268° |
| 2026-05-05 14:00 | 51.41946 | 12.37382 | 1945 ft | 163 kts | 268° |
| 2026-05-05 14:00 | 51.41866 | 12.35636 | 1781 ft | 157 kts | 268° |
| 2026-05-05 14:00 | 51.41784 | 12.33854 | 1592 ft | 161 kts | 268° |
| 2026-05-05 14:00 | 51.41699 | 12.32059 | 1330 ft | 162 kts | 269° |
| 2026-05-05 14:01 | 51.41616 | 12.30274 | 1105 ft | 162 kts | 269° |
| 2026-05-05 14:01 | 51.41534 | 12.28480 | 888 ft | 162 kts | 268° |
| 2026-05-05 14:01 | 51.41450 | 12.26690 | 659 ft | 160 kts | 268° |
| 2026-05-05 14:01 | 51.41368 | 12.24918 | 486 ft | 157 kts | 268° |
| 2026-05-05 14:02 | 51.41294 | 12.23325 | 472 ft | 125 kts | 266° |
| 2026-05-05 14:02 | 51.41244 | 12.22237 | 464 ft | 73 kts | 265° |
| 2026-05-05 14:02 | 51.41196 | 12.21839 | 460 ft | 22 kts | 240° |
| 2026-05-05 14:02 | 51.41129 | 12.21682 | 461 ft | 10 kts | 225° |
| 2026-05-05 14:03 | 51.41064 | 12.21690 | 463 ft | 10 kts | 132° |
| 2026-05-05 14:03 | 51.41053 | 12.21802 | 464 ft | 10 kts | 86° |
| 2026-05-05 14:03 | 51.41055 | 12.21847 | 464 ft | 1 kts | 86° |
| 2026-05-05 14:03 | 51.41055 | 12.21860 | 464 ft | 2 kts | 86° |
| 2026-05-05 14:04 | 51.41056 | 12.21887 | 463 ft | 3 kts | 86° |
| 2026-05-05 14:04 | 51.41058 | 12.21926 | 463 ft | 4 kts | 86° |
| 2026-05-05 14:04 | 51.41060 | 12.21971 | 463 ft | 4 kts | 86° |
| 2026-05-05 14:04 | 51.41063 | 12.22052 | 463 ft | 12 kts | 86° |
| 2026-05-05 14:05 | 51.41070 | 12.22225 | 464 ft | 17 kts | 86° |
| 2026-05-05 14:05 | 51.41077 | 12.22417 | 463 ft | 17 kts | 85° |
| 2026-05-05 14:05 | 51.41089 | 12.22608 | 466 ft | 17 kts | 84° |
| 2026-05-05 14:05 | 51.41100 | 12.22785 | 468 ft | 16 kts | 85° |
| 2026-05-05 14:06 | 51.41109 | 12.22966 | 473 ft | 16 kts | 85° |
| 2026-05-05 14:06 | 51.41117 | 12.23144 | 472 ft | 11 kts | 86° |
| 2026-05-05 14:06 | 51.41104 | 12.23257 | 472 ft | 11 kts | 134° |
| 2026-05-05 14:06 | 51.41045 | 12.23333 | 467 ft | 12 kts | 115° |
| 2026-05-05 14:07 | 51.41043 | 12.23465 | 472 ft | 12 kts | 86° |
| 2026-05-05 14:07 | 51.41049 | 12.23585 | 472 ft | 7 kts | 85° |
| 2026-05-05 14:07 | 51.41053 | 12.23665 | 475 ft | 8 kts | 85° |
| 2026-05-05 14:07 | 51.41058 | 12.23766 | 475 ft | 11 kts | 85° |
| 2026-05-05 14:08 | 51.41064 | 12.23890 | 473 ft | 11 kts | 85° |
| 2026-05-05 14:08 | 51.41070 | 12.24016 | 470 ft | 11 kts | 85° |
| 2026-05-05 14:08 | 51.41057 | 12.24103 | 468 ft | 8 kts | 137° |
| 2026-05-05 14:08 | 51.40996 | 12.24124 | 471 ft | 10 kts | 174° |
| 2026-05-05 14:09 | 51.40941 | 12.24122 | 466 ft | 7 kts | 208° |
| 2026-05-05 14:09 | 51.40925 | 12.24068 | 471 ft | 4 kts | 259° |
| 2026-05-05 14:09 | 51.40922 | 12.24030 | 471 ft | 0 kts | 264° |